Schneifelwetter: Wetterstation Hallschlag, 537 m . NN
Wetterdaten: Dienstag, 11.09.2012
Datum Zeit Temp. A. Feuchte A. Luftdruck Regen Wind Richtung Richtung Sonnenschein T Regen Taupunkt Windchill
11.09.2012 00:14 14,7 C 78 % 1014 hPa 0,0 l/m 0,0 km/h (0 Bft) W 265 0 min 0 min 10,9 C 14,7 C
11.09.2012 00:29 14,6 C 78 % 1014 hPa 0,0 l/m 0,0 km/h (0 Bft) W 265 0 min 0 min 10,8 C 14,6 C
11.09.2012 00:44 14,6 C 79 % 1014 hPa 0,0 l/m 0,0 km/h (0 Bft) W 265 0 min 0 min 11,0 C 14,6 C
11.09.2012 00:59 14,6 C 79 % 1014 hPa 0,0 l/m 0,0 km/h (0 Bft) W 265 0 min 0 min 11,0 C 14,6 C
11.09.2012 01:14 14,4 C 79 % 1014 hPa 0,0 l/m 0,6 km/h (0 Bft) SW45 220 0 min 0 min 10,8 C 14,4 C
11.09.2012 01:29 14,2 C 79 % 1013 hPa 0,0 l/m 1,7 km/h (1 Bft) S 185 0 min 0 min 10,6 C 14,2 C
11.09.2012 01:44 14,4 C 80 % 1013 hPa 0,0 l/m 8,1 km/h (2 Bft) S-SW22.5 200 0 min 0 min 11,0 C 13,4 C
11.09.2012 01:59 14,6 C 80 % 1013 hPa 0,0 l/m 9,0 km/h (2 Bft) S22.5 185 0 min 0 min 11,2 C 13,2 C
11.09.2012 02:14 14,8 C 79 % 1013 hPa 0,0 l/m 8,4 km/h (2 Bft) S-SW 205 0 min 0 min 11,2 C 13,7 C
11.09.2012 02:29 14,5 C 78 % 1013 hPa 0,0 l/m 7,8 km/h (2 Bft) S-SW 205 0 min 0 min 10,7 C 13,7 C
11.09.2012 02:44 14,6 C 80 % 1013 hPa 0,0 l/m 12,8 km/h (3 Bft) SW22.5 215 0 min 0 min 11,2 C 11,5 C
11.09.2012 02:59 15,0 C 80 % 1013 hPa 0,0 l/m 10,4 km/h (2 Bft) W-SW22.5 240 0 min 0 min 11,6 C 12,9 C
11.09.2012 03:14 15,2 C 80 % 1013 hPa 0,0 l/m 10,6 km/h (2 Bft) SW22.5 230 0 min 0 min 11,8 C 13,1 C
11.09.2012 03:29 15,4 C 79 % 1013 hPa 0,0 l/m 14,0 km/h (3 Bft) W-SW 250 0 min 0 min 11,8 C 12,0 C
11.09.2012 03:44 15,2 C 80 % 1013 hPa 0,0 l/m 12,5 km/h (3 Bft) SW 235 0 min 0 min 11,8 C 12,3 C
11.09.2012 03:59 15,0 C 81 % 1013 hPa 0,0 l/m 13,8 km/h (3 Bft) W-SW22.5 250 0 min 0 min 11,8 C 11,6 C
11.09.2012 04:14 15,1 C 81 % 1013 hPa 0,0 l/m 14,0 km/h (3 Bft) W22.5 260 0 min 0 min 11,9 C 11,6 C
11.09.2012 04:29 15,0 C 82 % 1013 hPa 0,0 l/m 19,5 km/h (3 Bft) W22.5 260 0 min 0 min 12,0 C 9,9 C
11.09.2012 04:44 15,0 C 84 % 1013 hPa 0,0 l/m 12,3 km/h (3 Bft) SW 230 0 min 0 min 12,3 C 12,2 C
11.09.2012 04:59 15,0 C 85 % 1013 hPa 0,0 l/m 9,7 km/h (2 Bft) S-SW 205 0 min 0 min 12,5 C 13,3 C
11.09.2012 05:14 14,8 C 86 % 1013 hPa 0,0 l/m 9,6 km/h (2 Bft) W-SW45 255 0 min 0 min 12,5 C 13,1 C
11.09.2012 05:29 14,9 C 86 % 1013 hPa 0,0 l/m 13,1 km/h (3 Bft) S-SW22.5 205 0 min 0 min 12,6 C 11,7 C
11.09.2012 05:44 15,0 C 85 % 1012 hPa 0,0 l/m 16,1 km/h (3 Bft) S-SW22.5 210 0 min 0 min 12,5 C 10,8 C
11.09.2012 05:59 14,8 C 86 % 1012 hPa 0,0 l/m 12,1 km/h (2 Bft) W-SW 245 0 min 0 min 12,5 C 12,0 C
11.09.2012 06:14 14,5 C 86 % 1012 hPa 0,0 l/m 9,4 km/h (2 Bft) W-SW 245 0 min 0 min 12,2 C 12,9 C
11.09.2012 06:29 14,4 C 86 % 1012 hPa 0,0 l/m 13,8 km/h (3 Bft) W-SW 250 0 min 0 min 12,1 C 10,9 C
11.09.2012 06:44 14,2 C 86 % 1012 hPa 0,0 l/m 11,1 km/h (2 Bft) W-SW 245 0 min 0 min 11,9 C 11,7 C
11.09.2012 06:59 14,0 C 87 % 1012 hPa 0,0 l/m 10,8 km/h (2 Bft) W-SW 245 0 min 0 min 11,9 C 11,6 C
11.09.2012 07:14 14,2 C 88 % 1012 hPa 0,0 l/m 14,8 km/h (3 Bft) W-SW45 250 0 min 0 min 12,2 C 10,3 C
11.09.2012 07:29 14,6 C 89 % 1013 hPa 0,0 l/m 18,6 km/h (3 Bft) S-SW45 205 0 min 0 min 12,8 C 9,6 C
11.09.2012 07:44 15,0 C 88 % 1013 hPa 0,0 l/m 16,1 km/h (3 Bft) W-SW45 240 0 min 0 min 13,0 C 10,8 C
11.09.2012 07:59 15,2 C 87 % 1012 hPa 0,0 l/m 17,5 km/h (3 Bft) SW45 220 0 min 0 min 13,0 C 10,7 C
11.09.2012 08:14 15,6 C 86 % 1012 hPa 0,0 l/m 17,4 km/h (3 Bft) SW45 215 0 min 0 min 13,3 C 11,2 C
11.09.2012 08:29 16,0 C 86 % 1012 hPa 0,0 l/m 12,5 km/h (3 Bft) W-SW 255 0 min 0 min 13,7 C 13,2 C
11.09.2012 08:44 16,3 C 85 % 1012 hPa 0,0 l/m 14,1 km/h (3 Bft) W-SW22.5 240 0 min 0 min 13,8 C 13,0 C
11.09.2012 08:59 16,2 C 85 % 1012 hPa 0,0 l/m 14,7 km/h (3 Bft) W45 260 0 min 0 min 13,7 C 12,7 C
11.09.2012 09:15 16,0 C 85 % 1013 hPa 0,0 l/m 16,0 km/h (3 Bft) SW45 215 0 min 0 min 13,5 C 12,1 C
11.09.2012 09:29 15,5 C 87 % 1013 hPa 0,0 l/m 14,4 km/h (3 Bft) S-SW67.5 205 0 min 0 min 13,3 C 12,0 C
11.09.2012 09:44 15,4 C 89 % 1013 hPa 0,0 l/m 13,5 km/h (3 Bft) S22.5 190 0 min 0 min 13,6 C 12,2 C
11.09.2012 09:59 15,7 C 89 % 1012 hPa 0,0 l/m 23,5 km/h (4 Bft) S-SW45 205 0 min 0 min 13,9 C 9,9 C
11.09.2012 10:14 16,6 C 89 % 1012 hPa 0,0 l/m 16,3 km/h (3 Bft) S-SW67.5 205 0 min 0 min 14,8 C 12,8 C
11.09.2012 10:29 17,7 C 87 % 1012 hPa 0,0 l/m 21,6 km/h (4 Bft) SW45 225 15 min 0 min 15,5 C 12,9 C
11.09.2012 10:45 18,6 C 84 % 1012 hPa 0,0 l/m 19,1 km/h (3 Bft) W-SW45 245 0 min 0 min 15,8 C 14,6 C
11.09.2012 10:59 17,7 C 83 % 1012 hPa 0,6 l/m 24,3 km/h (4 Bft) SW45 225 0 min 14 min 14,8 C 12,4 C
11.09.2012 11:14 17,3 C 85 % 1012 hPa 0,0 l/m 15,6 km/h (3 Bft) S-SW45 200 0 min 0 min 14,8 C 13,8 C
11.09.2012 11:29 18,1 C 84 % 1012 hPa 0,0 l/m 24,6 km/h (4 Bft) SW67.5 225 0 min 0 min 15,4 C 12,9 C
11.09.2012 11:44 18,7 C 83 % 1012 hPa 0,0 l/m 19,3 km/h (3 Bft) SW45 230 0 min 0 min 15,8 C 14,7 C
11.09.2012 11:59 18,2 C 82 % 1012 hPa 0,0 l/m 17,6 km/h (3 Bft) SW67.5 225 0 min 0 min 15,1 C 14,4 C
11.09.2012 12:14 17,8 C 84 % 1012 hPa 0,0 l/m 16,8 km/h (3 Bft) S-SW45 195 0 min 0 min 15,1 C 14,1 C
11.09.2012 12:29 17,5 C 85 % 1012 hPa 0,0 l/m 14,3 km/h (3 Bft) SW45 225 0 min 0 min 14,9 C 14,4 C
11.09.2012 12:44 17,4 C 86 % 1012 hPa 0,6 l/m 20,2 km/h (4 Bft) SW67.5 225 0 min 15 min 15,0 C 12,8 C
11.09.2012 12:59 17,5 C 87 % 1012 hPa 0,0 l/m 21,8 km/h (4 Bft) W45 260 0 min 0 min 15,3 C 12,6 C
11.09.2012 13:14 17,9 C 85 % 1012 hPa 0,0 l/m 28,5 km/h (4 Bft) W67.5 265 0 min 0 min 15,3 C 12,0 C
11.09.2012 13:29 18,1 C 83 % 1012 hPa 0,0 l/m 22,8 km/h (4 Bft) W-SW45 245 0 min 0 min 15,2 C 13,2 C
11.09.2012 13:44 18,8 C 77 % 1012 hPa 0,0 l/m 43,5 km/h (6 Bft) W22.5 265 0 min 0 min 14,7 C 11,6 C
11.09.2012 13:59 18,7 C 75 % 1012 hPa 0,0 l/m 38,2 km/h (5 Bft) W-SW67.5 255 0 min 0 min 14,2 C 12,0 C
11.09.2012 14:14 17,8 C 77 % 1012 hPa 0,0 l/m 38,3 km/h (5 Bft) W45 280 0 min 0 min 13,7 C 10,6 C
11.09.2012 14:29 17,6 C 77 % 1012 hPa 0,0 l/m 34,5 km/h (5 Bft) W-SW45 255 0 min 0 min 13,5 C 10,8 C
11.09.2012 14:44 17,8 C 77 % 1012 hPa 0,0 l/m 33,5 km/h (5 Bft) W-SW45 245 0 min 0 min 13,7 C 11,2 C
11.09.2012 14:59 17,7 C 79 % 1012 hPa 0,0 l/m 25,9 km/h (4 Bft) W-SW67.5 245 0 min 0 min 14,0 C 12,1 C
11.09.2012 15:14 18,0 C 79 % 1012 hPa 0,0 l/m 35,5 km/h (5 Bft) W-SW45 250 0 min 0 min 14,3 C 11,2 C
11.09.2012 15:29 17,7 C 79 % 1011 hPa 0,0 l/m 38,2 km/h (5 Bft) W45 270 0 min 0 min 14,0 C 10,5 C
11.09.2012 15:44 17,2 C 80 % 1011 hPa 0,0 l/m 46,0 km/h (6 Bft) W45 265 0 min 0 min 13,7 C 9,0 C
11.09.2012 15:59 17,5 C 79 % 1011 hPa 0,0 l/m 22,5 km/h (4 Bft) W-SW67.5 240 0 min 0 min 13,8 C 12,5 C
11.09.2012 16:14 17,6 C 77 % 1011 hPa 0,0 l/m 32,6 km/h (5 Bft) W45 275 0 min 0 min 13,5 C 11,0 C
11.09.2012 16:29 16,7 C 78 % 1011 hPa 0,0 l/m 26,6 km/h (4 Bft) W67.5 275 0 min 0 min 12,8 C 10,6 C
11.09.2012 16:44 14,8 C 81 % 1012 hPa 0,0 l/m 36,3 km/h (5 Bft) W-NW45 285 0 min 0 min 11,6 C 6,5 C
11.09.2012 16:59 13,8 C 83 % 1012 hPa 0,0 l/m 20,8 km/h (4 Bft) W-NW45 285 0 min 0 min 11,0 C 8,0 C
11.09.2012 17:14 13,4 C 86 % 1012 hPa 0,3 l/m 14,2 km/h (3 Bft) W22.5 260 0 min 15 min 11,1 C 9,5 C
11.09.2012 17:29 13,3 C 86 % 1012 hPa 0,3 l/m 16,5 km/h (3 Bft) W22.5 270 0 min 15 min 11,0 C 8,6 C
11.09.2012 17:44 13,2 C 86 % 1012 hPa 0,3 l/m 10,6 km/h (2 Bft) W-SW22.5 240 0 min 15 min 10,9 C 10,8 C
11.09.2012 17:59 13,2 C 87 % 1012 hPa 0,0 l/m 18,5 km/h (3 Bft) W45 270 0 min 0 min 11,1 C 7,9 C
11.09.2012 18:14 12,7 C 86 % 1012 hPa 0,3 l/m 19,3 km/h (3 Bft) W22.5 280 0 min 15 min 10,4 C 7,0 C
11.09.2012 18:29 12,4 C 87 % 1012 hPa 0,0 l/m 12,1 km/h (2 Bft) W22.5 260 0 min 0 min 10,3 C 9,2 C
11.09.2012 18:44 12,5 C 87 % 1012 hPa 0,3 l/m 16,4 km/h (3 Bft) W45 265 0 min 15 min 10,4 C 7,7 C
11.09.2012 18:59 12,8 C 87 % 1012 hPa 0,0 l/m 14,7 km/h (3 Bft) W45 270 0 min 0 min 10,7 C 8,6 C
11.09.2012 19:14 12,7 C 86 % 1012 hPa 0,0 l/m 12,9 km/h (3 Bft) W-SW 250 0 min 0 min 10,4 C 9,2 C
11.09.2012 19:29 12,5 C 87 % 1012 hPa 0,0 l/m 14,1 km/h (3 Bft) W22.5 265 0 min 0 min 10,4 C 8,5 C
11.09.2012 19:44 12,2 C 87 % 1012 hPa 0,0 l/m 9,6 km/h (2 Bft) W-SW 240 0 min 0 min 10,1 C 10,2 C
11.09.2012 19:59 12,0 C 88 % 1012 hPa 0,0 l/m 10,2 km/h (2 Bft) W-SW 240 0 min 0 min 10,1 C 9,7 C
11.09.2012 20:14 11,9 C 88 % 1012 hPa 0,0 l/m 8,7 km/h (2 Bft) W-SW 250 0 min 0 min 10,0 C 10,4 C
11.09.2012 20:29 11,6 C 89 % 1012 hPa 0,0 l/m 8,0 km/h (2 Bft) W-SW 250 0 min 0 min 9,8 C 10,5 C
11.09.2012 20:44 11,6 C 89 % 1012 hPa 0,0 l/m 7,0 km/h (2 Bft) W-SW 250 0 min 0 min 9,8 C 11,2 C
11.09.2012 20:59 11,6 C 89 % 1012 hPa 0,0 l/m 1,0 km/h (0 Bft) W-SW 250 0 min 0 min 9,8 C 11,6 C
11.09.2012 21:14 11,6 C 89 % 1012 hPa 0,0 l/m 0,6 km/h (0 Bft) W-SW 250 0 min 0 min 9,8 C 11,6 C
11.09.2012 21:29 11,6 C 90 % 1012 hPa 0,0 l/m 0,3 km/h (0 Bft) W-SW 250 0 min 0 min 10,0 C 11,6 C
11.09.2012 21:44 11,6 C 89 % 1012 hPa 0,0 l/m 6,9 km/h (2 Bft) W-SW 250 0 min 0 min 9,8 C 11,3 C
11.09.2012 21:59 11,5 C 90 % 1012 hPa 0,0 l/m 5,4 km/h (1 Bft) W-SW 250 0 min 0 min 9,9 C 11,5 C
11.09.2012 22:14 11,4 C 90 % 1013 hPa 0,0 l/m 0,0 km/h (0 Bft) W-SW 250 0 min 0 min 9,8 C 11,4 C
11.09.2012 22:29 11,4 C 91 % 1013 hPa 0,0 l/m 0,7 km/h (0 Bft) W-SW 250 0 min 0 min 10,0 C 11,4 C
11.09.2012 22:44 11,4 C 91 % 1013 hPa 0,0 l/m 0,0 km/h (0 Bft) W-SW 250 0 min 0 min 10,0 C 11,4 C
11.09.2012 22:59 11,4 C 91 % 1013 hPa 0,0 l/m 0,0 km/h (0 Bft) W-SW 250 0 min 0 min 10,0 C 11,4 C
11.09.2012 23:14 11,2 C 89 % 1013 hPa 0,0 l/m 14,1 km/h (3 Bft) NW22.5 320 0 min 0 min 9,5 C 7,0 C
11.09.2012 23:29 11,0 C 88 % 1013 hPa 0,0 l/m 3,8 km/h (1 Bft) NW 315 0 min 0 min 9,1 C 11,0 C
11.09.2012 23:44 10,4 C 87 % 1013 hPa 0,0 l/m 6,6 km/h (2 Bft) NW 315 0 min 0 min 8,3 C 10,3 C
11.09.2012 23:59 9,7 C 88 % 1013 hPa 0,0 l/m 4,2 km/h (1 Bft) NW 310 0 min 0 min 7,8 C 9,7 C
_ Min-Zeit 23:59 13:59 15:29 - 00:14 - - - - 23:59 16:44
Minimum _ 9,7 C 75 % 1011 hPa - 0,0 km/h (0 Bft) - - - - 7,8 C 6,5 C
_ Max-Zeit 13:44 22:29 00:14 10:59 15:44 - - 10:29 12:44 10:45 00:14
Maximum _ 18,8 C 91 % 1014 hPa 0,6 l/m 46,0 km/h
W (6 Bft)
- - 15 min 15 min 15,8 C 14,7 C
Durchschnitt _ 14,8 C 84 % 1013 hPa #2,7 l/m 15,1 km/h (3 Bft) W-SW - #15 min. #1:44 h 12,2 C 11,6 C